Time;durP1;ratioP1;P1;durP2;ratioP2;P2;SDS_P1;SDS_P2;PMS_P1;PMS_P2;Temp;Humidity;BMP_temperature;BMP_pressure;BME280_temperature;BME280_humidity;BME280_pressure;Samples;Min_cycle;Max_cycle;Signal;HPM_P1;HPM_P2
2022/12/05 00:00:46;;;;;;;60.50;29.60;;;;;;;0.09;90.63;99346.07;87124;1292;22592;-79
2022/12/05 00:02:47;;;;;;;68.90;31.90;;;;;;;0.08;90.50;99341.91;86958;1293;98945;-80
2022/12/05 00:04:48;;;;;;;71.80;30.90;;;;;;;0.07;90.72;99342.44;87177;1295;24346;-81
2022/12/05 00:06:50;;;;;;;86.70;33.40;;;;;;;0.06;90.75;99346.93;87085;1292;22495;-81
2022/12/05 00:08:52;;;;;;;95.50;33.60;;;;;;;0.07;90.88;99341.73;87103;1289;98881;-80
2022/12/05 00:10:53;;;;;;;118.50;34.20;;;;;;;0.08;90.68;99343.12;86991;1297;22656;-77
2022/12/05 00:12:54;;;;;;;110.30;34.70;;;;;;;0.08;90.94;99342.42;86991;1292;25305;-80
2022/12/05 00:14:55;;;;;;;93.30;34.40;;;;;;;0.07;90.59;99334.49;86956;1296;98729;-77
2022/12/05 00:16:56;;;;;;;94.00;32.50;;;;;;;0.08;90.78;99331.89;87034;1290;23409;-80
2022/12/05 00:19:01;;;;;;;114.90;35.80;;;;;;;0.08;90.70;99332.94;87220;1288;22529;-81
2022/12/05 00:21:03;;;;;;;125.00;37.20;;;;;;;0.08;90.97;99337.93;87178;1288;98587;-79
2022/12/05 00:23:04;;;;;;;92.60;33.80;;;;;;;0.08;90.69;99334.65;87055;1296;23030;-79
2022/12/05 00:25:07;;;;;;;101.90;34.90;;;;;;;0.09;90.83;99334.65;87141;1294;22515;-80
2022/12/05 00:27:08;;;;;;;103.10;32.70;;;;;;;0.09;90.63;99330.67;86909;1296;99049;-80
2022/12/05 00:29:09;;;;;;;114.20;34.20;;;;;;;0.09;90.74;99325.50;86926;1314;22746;-80
2022/12/05 00:31:13;;;;;;;93.40;36.30;;;;;;;0.09;90.73;99328.77;87074;1294;25547;-80
2022/12/05 00:33:13;;;;;;;64.50;30.50;;;;;;;0.09;90.85;99328.09;86927;1289;99177;-81
2022/12/05 00:35:15;;;;;;;111.10;36.60;;;;;;;0.09;90.97;99325.67;87004;1313;22507;-81
2022/12/05 00:37:16;;;;;;;123.20;36.20;;;;;;;0.08;90.65;99316.15;86939;1289;22518;-80
2022/12/05 00:39:17;;;;;;;99.00;37.00;;;;;;;0.08;90.84;99313.23;86854;1298;98747;-78
2022/12/05 00:41:21;;;;;;;90.50;37.80;;;;;;;0.07;91.11;99311.16;87134;1297;22691;-77
2022/12/05 00:43:22;;;;;;;106.00;34.20;;;;;;;0.07;90.75;99314.62;87123;1294;23538;-78
2022/12/05 00:45:23;;;;;;;121.60;35.10;;;;;;;0.07;90.85;99316.52;87290;1288;99448;-78
2022/12/05 00:47:24;;;;;;;83.60;31.20;;;;;;;0.07;91.01;99309.08;88047;1289;23314;-76
2022/12/05 00:49:25;;;;;;;111.90;34.50;;;;;;;0.07;90.72;99310.81;87023;1286;22507;-80
2022/12/05 00:51:29;;;;;;;103.50;36.10;;;;;;;0.06;90.76;99308.05;86989;1295;98452;-79
2022/12/05 00:53:31;;;;;;;106.60;34.00;;;;;;;0.07;90.81;99308.05;87077;1289;23047;-79
2022/12/05 00:55:36;;;;;;;126.50;37.90;;;;;;;0.08;90.88;99306.67;86948;1289;23110;-78
2022/12/05 00:57:37;;;;;;;116.50;36.50;;;;;;;0.08;90.82;99308.56;86794;1288;98466;-81
2022/12/05 00:59:39;;;;;;;110.60;38.70;;;;;;;0.09;90.86;99310.63;87017;1319;24691;-80
2022/12/05 01:01:41;;;;;;;102.90;35.80;;;;;;;0.09;91.06;99303.23;86919;1288;22488;-78
2022/12/05 01:03:43;;;;;;;73.50;29.60;;;;;;;0.09;90.95;99305.98;86846;1296;99123;-76
2022/12/05 01:05:44;;;;;;;88.60;31.60;;;;;;;0.07;90.78;99307.35;86805;1296;22942;-78
2022/12/05 01:07:45;;;;;;;105.50;37.10;;;;;;;0.06;91.05;99300.62;86737;1288;98392;-77
2022/12/05 01:09:46;;;;;;;90.80;36.40;;;;;;;0.06;91.01;99298.90;86824;1296;25413;-79
2022/12/05 01:11:48;;;;;;;102.00;35.40;;;;;;;0.07;90.83;99294.39;86898;1289;22750;-77
2022/12/05 01:13:49;;;;;;;123.60;37.60;;;;;;;0.06;90.96;99291.12;86778;1295;98550;-80
2022/12/05 01:15:51;;;;;;;95.00;33.80;;;;;;;0.06;91.07;99294.06;86981;1296;22505;-79
2022/12/05 01:17:52;;;;;;;;;;;;;;;0.06;91.22;99292.67;87060;1298;23112;-80
2022/12/05 01:19:52;;;;;;;144.70;33.40;;;;;;;0.04;90.96;99288.17;87021;1293;84746;-80
2022/12/05 01:21:54;;;;;;;96.20;32.70;;;;;;;0.04;90.94;99287.66;86810;1289;22602;-81
2022/12/05 01:23:56;;;;;;;80.70;35.20;;;;;;;0.01;91.13;99276.09;86943;1289;22526;-81
2022/12/05 01:25:56;;;;;;;;;;;;;;;0.04;90.94;99281.61;86708;1299;98415;-79
2022/12/05 01:27:57;;;;;;;129.30;36.70;;;;;;;0.04;90.86;99279.54;86908;1289;22471;-79
2022/12/05 01:29:58;;;;;;;63.90;33.20;;;;;;;-0.02;90.98;99271.25;86769;1292;22997;-80
2022/12/05 01:31:59;;;;;;;97.80;35.00;;;;;;;0.02;90.97;99272.98;86890;1289;98765;-80
2022/12/05 01:34:04;;;;;;;78.90;31.80;;;;;;;0.02;90.76;99275.58;86865;1296;22954;-78
2022/12/05 01:36:10;;;;;;;91.30;36.70;;;;;;;0.00;90.82;99273.16;86959;1293;23433;-81
2022/12/05 01:38:12;;;;;;;101.60;37.30;;;;;;;0.01;90.94;99276.95;86943;1296;98250;-81
2022/12/05 01:40:13;;;;;;;83.40;33.50;;;;;;;0.01;90.96;99269.02;86869;1288;22475;-80
2022/12/05 01:42:14;;;;;;;69.30;34.20;;;;;;;0.01;90.97;99263.31;86985;1294;22491;-80
2022/12/05 01:44:15;;;;;;;95.10;37.50;;;;;;;0.01;91.00;99257.78;86947;1296;98471;-79
2022/12/05 01:46:17;;;;;;;93.40;33.70;;;;;;;0.01;90.91;99258.12;87003;1295;23713;-80
2022/12/05 01:48:24;;;;;;;87.30;34.80;;;;;;;0.01;90.96;99260.72;86954;1288;23476;-80
2022/12/05 01:50:25;;;;;;;77.40;34.70;;;;;;;0.01;90.95;99264.17;86971;1288;98733;-78
2022/12/05 01:52:29;;;;;;;71.00;35.00;;;;;;;0.00;91.08;99261.23;86910;1296;24408;-80
2022/12/05 01:54:30;;;;;;;115.10;38.70;;;;;;;0.02;90.88;99268.49;87002;1293;26004;-80
2022/12/05 01:56:33;;;;;;;89.40;38.70;;;;;;;0.03;90.87;99275.40;86949;1309;98424;-80
2022/12/05 01:58:37;;;;;;;110.60;39.80;;;;;;;0.04;91.11;99277.63;86933;1294;22493;-79
2022/12/05 02:00:39;;;;;;;90.20;37.70;;;;;;;0.05;91.21;99273.67;87141;1294;22651;-80
2022/12/05 02:02:42;;;;;;;;;;;;;;;0.05;91.14;99272.81;86979;1289;98529;-80
2022/12/05 02:05:00;;;;;;;79.80;35.90;;;;;;;0.05;91.05;99278.52;86867;1289;23753;-79
2022/12/05 02:07:00;;;;;;;92.50;37.70;;;;;;;0.05;91.04;99272.98;87038;1293;22656;-79
2022/12/05 02:09:02;;;;;;;94.10;37.30;;;;;;;0.06;90.91;99271.77;86913;1296;98421;-78
2022/12/05 02:11:06;;;;;;;94.90;38.50;;;;;;;0.07;91.04;99278.52;86846;1295;205455;-77
2022/12/05 02:13:27;;;;;;;107.10;36.20;;;;;;;0.08;91.16;99280.23;87116;1286;22500;-79
2022/12/05 02:15:41;;;;;;;80.20;38.60;;;;;;;0.09;91.25;99274.35;86907;1290;98392;-80
2022/12/05 02:17:48;;;;;;;94.30;36.60;;;;;;;0.11;91.06;99274.71;87035;1296;23033;-80
2022/12/05 02:20:08;;;;;;;85.30;36.90;;;;;;;0.12;91.01;99273.48;86938;1293;98418;-81
2022/12/05 02:22:30;;;;;;;92.70;36.90;;;;;;;0.12;91.16;99269.50;86897;1286;22548;-78
2022/12/05 02:24:42;;;;;;;90.30;38.60;;;;;;;0.12;91.01;99266.06;86946;1288;22523;-80
2022/12/05 02:26:42;;;;;;;;;;;;;;;0.12;91.24;99267.78;86922;1301;98382;-79
2022/12/05 02:28:52;;;;;;;91.40;40.60;;;;;;;0.11;91.01;99265.20;87034;1286;22522;-80
2022/12/05 02:31:05;;;;;;;75.90;32.80;;;;;;;0.12;91.11;99262.08;87001;1290;22736;-81
2022/12/05 02:33:23;;;;;;;104.00;36.80;;;;;;;0.12;90.95;99261.57;86999;1296;98555;-80
2022/12/05 02:35:34;;;;;;;81.00;35.60;;;;;;;0.12;91.03;99259.66;86949;1296;22952;-80
2022/12/05 02:37:49;;;;;;;119.50;37.50;;;;;;;0.13;91.18;99259.14;86989;1296;22475;-79
2022/12/05 02:40:00;;;;;;;109.10;39.50;;;;;;;0.13;91.01;99253.10;86813;1289;22497;-80
2022/12/05 02:42:09;;;;;;;114.50;39.30;;;;;;;0.13;91.17;99253.96;86965;1296;22897;-80
2022/12/05 02:44:36;;;;;;;130.80;40.00;;;;;;;0.09;91.09;99244.81;86854;1289;99003;-80
2022/12/05 02:46:39;;;;;;;100.10;35.70;;;;;;;0.11;91.25;99250.86;86941;1289;25402;-81
2022/12/05 02:48:44;;;;;;;109.00;37.80;;;;;;;0.14;90.99;99259.67;86955;1289;22548;-80
2022/12/05 02:50:47;;;;;;;146.20;40.10;;;;;;;0.13;91.26;99260.18;86899;1289;99091;-80
2022/12/05 02:52:52;;;;;;;101.40;33.40;;;;;;;0.13;91.10;99260.70;86746;1295;22556;-82
2022/12/05 02:54:55;;;;;;;98.80;35.20;;;;;;;0.13;91.03;99257.77;86875;1289;25888;-80
2022/12/05 02:56:59;;;;;;;103.50;33.20;;;;;;;0.12;91.14;99257.41;86809;1294;99376;-77
2022/12/05 02:59:00;;;;;;;79.60;34.60;;;;;;;0.09;91.17;99253.46;87034;1296;22573;-80
2022/12/05 03:01:02;;;;;;;126.00;35.00;;;;;;;0.10;91.13;99258.12;86996;1292;22406;-80
2022/12/05 03:03:14;;;;;;;91.70;33.70;;;;;;;0.11;90.94;99258.64;86904;1296;98638;-80
2022/12/05 03:05:31;;;;;;;114.80;36.30;;;;;;;0.12;91.00;99261.05;87137;1289;22424;-81
2022/12/05 03:07:35;;;;;;;90.80;34.00;;;;;;;0.11;91.30;99261.23;86918;1288;22521;-80
2022/12/05 03:09:45;;;;;;;100.80;35.70;;;;;;;0.11;91.00;99262.45;86883;1288;99889;-78
2022/12/05 03:11:52;;;;;;;96.00;37.10;;;;;;;0.10;90.96;99260.71;87159;1294;24158;-79
2022/12/05 03:14:00;;;;;;;97.40;37.90;;;;;;;0.10;91.11;99260.71;86983;1289;98678;-82
2022/12/05 03:16:12;;;;;;;65.40;32.30;;;;;;;0.10;91.00;99265.20;87148;1288;22489;-81
2022/12/05 03:18:22;;;;;;;87.70;33.80;;;;;;;0.11;91.04;99268.15;87091;1285;23292;-77
2022/12/05 03:20:31;;;;;;;87.80;34.40;;;;;;;0.11;91.17;99268.65;87069;1296;98224;-81
2022/12/05 03:22:39;;;;;;;94.20;34.80;;;;;;;0.12;91.01;99269.86;86960;1292;25453;-81
2022/12/05 03:24:41;;;;;;;92.40;37.40;;;;;;;0.09;90.99;99260.88;87140;1293;22490;-80
2022/12/05 03:26:42;;;;;;;113.80;41.70;;;;;;;0.13;91.33;99257.77;86976;1296;98905;-80
2022/12/05 03:28:57;;;;;;;94.00;33.20;;;;;;;0.13;91.01;99254.30;87069;1296;23133;-81
2022/12/05 03:31:07;;;;;;;102.90;36.30;;;;;;;0.12;90.94;99260.02;86879;1293;22572;-80
2022/12/05 03:33:19;;;;;;;97.20;33.70;;;;;;;0.11;91.15;99263.13;86962;1284;98925;-80
2022/12/05 03:35:45;;;;;;;94.40;34.60;;;;;;;0.12;90.98;99263.64;87030;1296;22514;-79
2022/12/05 03:37:50;;;;;;;88.20;29.10;;;;;;;0.13;91.18;99265.20;86902;1298;22632;-78
2022/12/05 03:40:10;;;;;;;86.20;31.50;;;;;;;0.12;91.09;99264.16;86854;1296;97960;-79
2022/12/05 03:42:15;;;;;;;71.70;31.10;;;;;;;0.11;91.12;99254.14;86953;1297;22499;-78
2022/12/05 03:44:23;;;;;;;129.60;34.60;;;;;;;0.10;91.15;99253.10;86753;1300;98962;-81
2022/12/05 03:46:54;;;;;;;110.90;32.00;;;;;;;0.10;90.85;99251.38;87053;1295;22470;-80
2022/12/05 03:49:08;;;;;;;126.30;35.70;;;;;;;0.09;91.09;99246.19;87056;1289;26829;-80
2022/12/05 03:51:13;;;;;;;127.20;31.00;;;;;;;0.08;91.12;99243.08;86982;1289;98705;-79
2022/12/05 03:53:29;;;;;;;129.10;34.80;;;;;;;0.08;91.01;99243.77;86953;1315;25396;-79
2022/12/05 03:55:34;;;;;;;112.70;32.30;;;;;;;0.08;91.03;99253.80;87305;1294;22499;-79
2022/12/05 03:57:42;;;;;;;67.80;26.50;;;;;;;0.07;91.06;99258.81;86827;1296;99035;-80
2022/12/05 03:59:58;;;;;;;134.90;35.30;;;;;;;0.07;91.24;99267.27;86799;1292;26594;-81
2022/12/05 04:02:03;;;;;;;99.70;30.30;;;;;;;0.07;91.16;99273.84;86929;1289;98798;-80
2022/12/05 04:04:15;;;;;;;118.40;32.00;;;;;;;0.08;91.30;99274.52;87024;1295;22493;-78
2022/12/05 04:06:30;;;;;;;139.10;33.10;;;;;;;0.09;91.18;99284.39;86885;1294;26980;-76
2022/12/05 04:08:36;;;;;;;87.60;30.60;;;;;;;0.11;91.13;99289.58;86816;1296;98364;-81
2022/12/05 04:10:50;;;;;;;162.60;35.10;;;;;;;0.12;91.23;99296.63;86938;1295;23982;-77
2022/12/05 04:12:55;;;;;;;125.90;32.50;;;;;;;0.13;91.15;99289.21;86930;1299;26512;-81
2022/12/05 04:15:05;;;;;;;148.20;34.00;;;;;;;0.13;91.03;99293.34;86952;1296;98537;-82
2022/12/05 04:17:15;;;;;;;118.10;33.10;;;;;;;0.13;91.19;99292.50;87003;1295;22823;-79
2022/12/05 04:19:25;;;;;;;117.10;33.00;;;;;;;0.14;91.21;99286.80;86908;1303;22477;-81
2022/12/05 04:21:38;;;;;;;105.40;34.00;;;;;;;0.15;91.19;99281.44;86841;1319;99256;-78
2022/12/05 04:23:39;;;;;;;115.90;36.10;;;;;;;0.16;91.52;99280.91;87227;1296;22548;-80
2022/12/05 04:26:08;;;;;;;114.20;32.70;;;;;;;0.17;91.22;99276.77;86791;1294;22564;-81
2022/12/05 04:28:40;;;;;;;100.20;28.20;;;;;;;0.18;91.27;99271.42;86825;1296;22700;-79
2022/12/05 04:30:50;;;;;;;103.10;30.40;;;;;;;0.18;91.34;99271.92;86854;1287;22479;-81
2022/12/05 04:33:16;;;;;;;120.90;34.70;;;;;;;0.18;91.37;99274.70;86718;1296;98434;-80
2022/12/05 04:35:29;;;;;;;115.80;29.90;;;;;;;0.17;91.44;99274.52;86935;1289;22506;-81
2022/12/05 04:37:35;;;;;;;121.60;30.20;;;;;;;0.16;91.36;99276.43;86913;1288;22497;-81
2022/12/05 04:39:48;;;;;;;123.10;33.80;;;;;;;0.17;91.36;99281.43;86610;1288;99586;-79
2022/12/05 04:41:55;;;;;;;103.70;32.60;;;;;;;0.17;91.32;99277.30;86743;1296;22496;-80
2022/12/05 04:44:00;;;;;;;105.20;31.50;;;;;;;0.19;91.36;99274.70;86979;1292;22462;-80
2022/12/05 04:46:06;;;;;;;118.40;33.30;;;;;;;0.19;91.25;99277.80;87032;1299;22835;-82
2022/12/05 04:48:12;;;;;;;114.80;33.80;;;;;;;0.19;91.31;99278.15;86932;1297;22587;-80
2022/12/05 04:50:15;;;;;;;103.10;30.40;;;;;;;0.20;91.32;99266.92;87031;1299;98573;-80
2022/12/05 04:52:16;;;;;;;77.20;30.20;;;;;;;0.19;91.31;99268.13;86905;1289;22501;-82
2022/12/05 04:54:27;;;;;;;;;;;;;;;0.19;91.10;99272.11;86891;1296;24033;-81
2022/12/05 04:56:32;;;;;;;120.10;30.60;;;;;;;0.17;91.18;99261.73;86775;1289;84577;-82
2022/12/05 04:58:34;;;;;;;126.70;33.20;;;;;;;0.13;91.09;99251.55;86898;1297;22506;-82
2022/12/05 05:01:06;;;;;;;110.00;33.00;;;;;;;0.16;91.24;99259.83;86850;1295;22489;-77
2022/12/05 05:03:30;;;;;;;104.10;31.30;;;;;;;0.17;91.12;99255.00;86838;1296;99237;-80
2022/12/05 05:05:34;;;;;;;127.70;31.20;;;;;;;0.17;91.22;99254.48;86888;1295;22488;-82
2022/12/05 05:07:46;;;;;;;108.70;31.30;;;;;;;0.18;91.27;99250.67;86896;1295;24008;-81
2022/12/05 05:09:47;;;;;;;66.90;29.20;;;;;;;0.17;91.32;99252.23;87088;1292;99012;-81
2022/12/05 05:11:48;;;;;;;105.60;33.00;;;;;;;0.17;91.37;99252.23;86902;1289;24255;-77
2022/12/05 05:13:50;;;;;;;121.20;38.20;;;;;;;0.15;91.11;99253.62;86956;1290;22517;-82
2022/12/05 05:15:51;;;;;;;58.30;29.60;;;;;;;0.16;91.21;99248.77;86817;1295;98996;-79
2022/12/05 05:17:52;;;;;;;64.70;28.70;;;;;;;0.16;91.00;99245.49;86968;1288;25295;-80
2022/12/05 05:20:22;;;;;;;79.90;33.80;;;;;;;0.15;91.36;99240.30;86814;1291;24301;-81
2022/12/05 05:22:15;;;;;;;64.10;27.30;;;;;;;0.16;91.26;99227.36;86876;1288;23250;-77
2022/12/05 05:24:17;;;;;;;50.30;25.80;;;;;;;0.14;91.50;99228.39;86845;1317;24055;-79
2022/12/05 05:26:19;;;;;;;69.10;27.40;;;;;;;0.13;91.15;99232.37;86691;1298;99089;-79
2022/12/05 05:28:20;;;;;;;64.40;28.70;;;;;;;0.12;91.21;99227.88;86767;1291;24568;-81
2022/12/05 05:30:24;;;;;;;62.40;28.80;;;;;;;0.11;91.08;99233.58;86694;1299;22511;-80
2022/12/05 05:32:25;;;;;;;63.00;27.50;;;;;;;0.10;91.19;99239.63;86706;1296;98479;-80
2022/12/05 05:34:27;;;;;;;68.40;27.50;;;;;;;0.10;91.09;99237.39;86816;1290;22660;-80
2022/12/05 05:36:28;;;;;;;65.80;27.20;;;;;;;0.11;91.12;99238.59;86841;1302;24303;-78
2022/12/05 05:38:30;;;;;;;67.40;27.60;;;;;;;0.11;91.11;99230.65;86831;1282;99451;-81
2022/12/05 05:40:35;;;;;;;72.70;28.00;;;;;;;0.10;91.07;99228.41;86867;1295;23831;-79
2022/12/05 05:42:44;;;;;;;74.50;28.30;;;;;;;0.09;91.10;99230.13;86911;1296;22505;-79
2022/12/05 05:44:45;;;;;;;92.20;29.80;;;;;;;0.09;91.29;99228.05;86816;1296;98197;-81
2022/12/05 05:46:46;;;;;;;115.30;30.80;;;;;;;-0.06;91.34;99195.77;86914;1312;24426;-81
2022/12/05 05:48:47;;;;;;;73.00;29.00;;;;;;;0.08;91.08;99219.76;86961;1296;22836;-81
2022/12/05 05:50:49;;;;;;;117.80;31.70;;;;;;;0.08;91.39;99224.60;86891;1296;98388;-82
2022/12/05 05:52:50;;;;;;;102.80;32.00;;;;;;;0.07;91.19;99228.56;86840;1296;22998;-78
2022/12/05 05:54:51;;;;;;;100.70;31.20;;;;;;;0.09;91.24;99235.48;86942;1287;22585;-80
2022/12/05 05:56:52;;;;;;;;;;;;;;;0.10;91.17;99235.14;86768;1297;99027;-80
2022/12/05 05:59:01;;;;;;;73.80;29.90;;;;;;;0.08;91.20;99237.21;86966;1296;22769;-79
2022/12/05 06:01:12;;;;;;;89.60;30.00;;;;;;;0.08;91.36;99242.73;86869;1296;24254;-79
2022/12/05 06:03:14;;;;;;;98.30;30.00;;;;;;;0.04;91.24;99239.80;87047;1296;98208;-80
2022/12/05 06:05:16;;;;;;;56.90;28.00;;;;;;;0.07;91.09;99248.27;86959;1297;22489;-80
2022/12/05 06:07:17;;;;;;;69.60;27.80;;;;;;;0.06;91.16;99248.45;87056;1311;22442;-81
2022/12/05 06:09:17;;;;;;;81.30;31.50;;;;;;;0.06;91.21;99245.16;86945;1317;98897;-80
2022/12/05 06:11:24;;;;;;;74.90;31.70;;;;;;;0.05;91.43;99244.83;86958;1314;22352;-81
2022/12/05 06:13:26;;;;;;;76.90;26.90;;;;;;;0.07;91.30;99244.30;87161;1289;22463;-78
2022/12/05 06:15:30;;;;;;;79.80;30.00;;;;;;;0.08;91.47;99241.88;87701;1296;98228;-77
2022/12/05 06:17:31;;;;;;;95.10;30.90;;;;;;;0.08;91.40;99237.55;87398;1299;22440;-76
2022/12/05 06:19:32;;;;;;;131.20;31.00;;;;;;;0.06;91.15;99236.53;86905;1302;22831;-82
2022/12/05 06:21:33;;;;;;;105.00;31.70;;;;;;;0.06;91.48;99240.16;86759;1295;98732;-81
2022/12/05 06:23:35;;;;;;;63.60;29.40;;;;;;;0.06;91.22;99250.70;87030;1302;24715;-81
2022/12/05 06:25:36;;;;;;;90.30;30.90;;;;;;;0.06;91.20;99251.21;87023;1296;22588;-83
2022/12/05 06:27:38;;;;;;;74.50;28.40;;;;;;;0.07;91.26;99243.09;86730;1295;98621;-83
2022/12/05 06:29:39;;;;;;;89.20;28.90;;;;;;;0.07;91.11;99242.73;86796;1296;22438;-77
2022/12/05 06:31:40;;;;;;;83.50;31.00;;;;;;;0.07;91.31;99239.30;86935;1289;22542;-83
2022/12/05 06:33:43;;;;;;;95.80;31.70;;;;;;;0.06;91.13;99240.16;86695;1292;98270;-84
2022/12/05 06:35:45;;;;;;;118.70;31.00;;;;;;;0.08;91.22;99244.80;86912;1296;23403;-84
2022/12/05 06:37:46;;;;;;;88.40;32.40;;;;;;;0.08;91.48;99244.80;86833;1296;22525;-80
2022/12/05 06:39:47;;;;;;;133.60;35.40;;;;;;;0.09;91.55;99247.40;86680;1320;98331;-78
2022/12/05 06:41:48;;;;;;;98.70;35.90;;;;;;;0.08;91.28;99251.20;86650;1293;22440;-79
2022/12/05 06:43:55;;;;;;;105.40;32.40;;;;;;;0.08;91.34;99258.46;86799;1295;22503;-81
2022/12/05 06:45:56;;;;;;;157.30;35.20;;;;;;;0.09;91.63;99257.23;86830;1297;99295;-82
2022/12/05 06:47:57;;;;;;;70.60;29.70;;;;;;;0.09;91.33;99257.77;86826;1296;22484;-83
2022/12/05 06:49:58;;;;;;;119.50;32.70;;;;;;;0.10;91.54;99261.58;86849;1297;23601;-81
2022/12/05 06:51:59;;;;;;;121.10;33.30;;;;;;;0.10;91.49;99260.36;86735;1309;98395;-82
2022/12/05 06:54:00;;;;;;;111.40;34.80;;;;;;;0.10;91.41;99262.27;86702;1285;22593;-80
2022/12/05 06:56:04;;;;;;;58.30;29.60;;;;;;;0.10;91.43;99259.33;86794;1296;25372;-79
2022/12/05 06:58:05;;;;;;;78.50;32.00;;;;;;;0.10;91.32;99258.64;87217;1295;98523;-80
2022/12/05 07:02:26;;;;;;;78.00;32.10;;;;;;;0.12;91.26;99258.47;86705;1292;98651;-81
2022/12/05 07:04:27;;;;;;;84.30;32.60;;;;;;;0.12;91.31;99259.67;86800;1295;22466;-82
2022/12/05 07:06:28;;;;;;;77.30;33.50;;;;;;;0.12;91.37;99255.34;86908;1279;25384;-77
2022/12/05 07:08:29;;;;;;;73.80;33.90;;;;;;;0.12;91.33;99254.48;86873;1295;98547;-76
2022/12/05 07:10:30;;;;;;;64.50;28.30;;;;;;;0.13;91.43;99256.73;87054;1292;22561;-78
2022/12/05 07:12:32;;;;;;;87.30;34.90;;;;;;;0.13;91.30;99256.90;86897;1290;22747;-78
2022/12/05 07:14:33;;;;;;;74.70;31.90;;;;;;;0.14;91.44;99255.35;86948;1296;98434;-80
2022/12/05 07:16:35;;;;;;;66.20;31.60;;;;;;;0.15;91.34;99254.48;86872;1295;23536;-78
2022/12/05 07:18:37;;;;;;;67.50;33.90;;;;;;;0.15;91.55;99250.34;86959;1290;23398;-77
2022/12/05 07:20:37;;;;;;;63.10;31.70;;;;;;;0.18;91.47;99253.78;86852;1299;98863;-77
2022/12/05 07:22:38;;;;;;;74.30;36.90;;;;;;;0.21;91.41;99250.84;87080;1286;22484;-78
2022/12/05 07:24:39;;;;;;;80.00;35.70;;;;;;;0.24;91.47;99252.39;87067;1296;22543;-75
2022/12/05 07:26:40;;;;;;;82.10;36.40;;;;;;;0.25;91.37;99257.91;87081;1293;98447;-77
2022/12/05 07:28:41;;;;;;;64.40;31.60;;;;;;;0.26;91.44;99255.16;87112;1288;22492;-76
2022/12/05 07:30:43;;;;;;;66.00;33.30;;;;;;;0.27;91.39;99249.11;86987;1295;22519;-77
2022/12/05 07:32:44;;;;;;;76.50;33.90;;;;;;;0.28;91.39;99244.44;86875;1290;99085;-77
2022/12/05 07:34:45;;;;;;;;;;;;;;;0.29;91.31;99245.11;87062;1279;25217;-78
2022/12/05 07:36:46;;;;;;;66.50;33.30;;;;;;;0.31;91.27;99248.05;87157;1290;22513;-78
2022/12/05 07:38:48;;;;;;;61.60;31.30;;;;;;;0.33;91.61;99248.23;87094;1286;99241;-77
2022/12/05 07:40:49;;;;;;;64.20;30.80;;;;;;;0.36;91.54;99247.35;87127;1282;22468;-77
2022/12/05 07:42:52;;;;;;;59.90;31.60;;;;;;;0.40;91.71;99248.03;87062;1290;22477;-78
2022/12/05 07:44:53;;;;;;;59.10;28.00;;;;;;;0.43;91.56;99246.64;86865;1300;98941;-78
2022/12/05 07:46:54;;;;;;;50.80;26.50;;;;;;;0.44;91.54;99248.52;87061;1289;22473;-78
2022/12/05 07:48:56;;;;;;;54.70;27.00;;;;;;;0.46;91.55;99242.32;87133;1292;24219;-77
2022/12/05 07:51:05;;;;;;;59.80;31.60;;;;;;;0.46;91.33;99247.85;86852;1305;99755;-79
2022/12/05 07:53:07;;;;;;;65.40;36.10;;;;;;;0.48;91.61;99242.82;87536;1295;22504;-77
2022/12/05 07:55:08;;;;;;;74.10;33.40;;;;;;;0.50;91.61;99245.41;87151;1295;33847;-78
2022/12/05 07:57:09;;;;;;;;;;;;;;;0.51;91.43;99246.63;87027;1286;98681;-76
2022/12/05 07:59:10;;;;;;;62.20;30.80;;;;;;;0.48;91.40;99248.00;86960;1288;26356;-77
2022/12/05 08:01:15;;;;;;;63.90;27.70;;;;;;;0.39;91.34;99240.25;87611;1291;22492;-77
2022/12/05 08:03:22;;;;;;;50.80;30.50;;;;;;;0.44;91.45;99249.58;87249;1284;100153;-78
2022/12/05 08:05:25;;;;;;;60.50;31.40;;;;;;;0.47;91.62;99250.26;87754;1311;22558;-77
2022/12/05 08:07:26;;;;;;;63.60;32.40;;;;;;;0.48;91.54;99248.86;86948;1290;22538;-77
2022/12/05 08:09:27;;;;;;;62.40;29.20;;;;;;;0.49;91.50;99245.93;86975;1287;98232;-78
2022/12/05 08:11:31;;;;;;;53.50;28.50;;;;;;;0.49;91.41;99244.89;86995;1292;22503;-77
2022/12/05 08:13:33;;;;;;;76.10;30.50;;;;;;;0.49;91.55;99242.99;87028;1286;27636;-78
2022/12/05 08:15:35;;;;;;;75.50;31.20;;;;;;;0.49;91.54;99244.20;86858;1303;99266;-76
2022/12/05 08:17:36;;;;;;;61.40;30.90;;;;;;;0.49;91.35;99244.73;87107;1282;22970;-76
2022/12/05 08:19:37;;;;;;;58.30;29.70;;;;;;;0.50;91.39;99247.30;86850;1295;22534;-77
2022/12/05 08:21:38;;;;;;;65.60;30.90;;;;;;;0.51;91.32;99245.77;87307;1300;98474;-76
2022/12/05 08:23:42;;;;;;;63.20;31.40;;;;;;;0.54;91.58;99249.73;87126;1304;22469;-76
2022/12/05 08:25:43;;;;;;;61.50;31.60;;;;;;;0.55;91.44;99251.80;87169;1295;25272;-78
2022/12/05 08:27:44;;;;;;;52.40;29.50;;;;;;;0.57;91.50;99249.36;87155;1302;98917;-75
2022/12/05 08:29:51;;;;;;;60.90;29.10;;;;;;;0.59;91.39;99253.33;87237;1288;24271;-77
2022/12/05 08:31:54;;;;;;;66.80;30.20;;;;;;;0.62;91.45;99255.76;87608;1295;22536;-76
2022/12/05 08:34:02;;;;;;;57.10;28.90;;;;;;;0.63;91.48;99256.61;87403;1289;98366;-76
2022/12/05 08:36:16;;;;;;;54.30;27.70;;;;;;;0.65;91.27;99258.16;87404;1292;22507;-76
2022/12/05 08:38:17;;;;;;;48.90;29.20;;;;;;;0.67;91.63;99253.13;87215;1306;99212;-77
2022/12/05 08:40:19;;;;;;;62.60;32.20;;;;;;;0.69;91.48;99255.20;87194;1294;21930;-78
2022/12/05 08:42:20;;;;;;;52.60;29.10;;;;;;;0.71;91.64;99246.55;87233;1303;24378;-78
2022/12/05 08:44:21;;;;;;;58.30;29.60;;;;;;;0.73;91.63;99244.81;87115;1294;98603;-76
2022/12/05 08:46:23;;;;;;;50.00;28.20;;;;;;;0.75;91.48;99249.48;87206;1303;22666;-78
2022/12/05 08:48:26;;;;;;;48.70;28.00;;;;;;;0.76;91.28;99247.57;87173;1286;22521;-77
2022/12/05 08:50:27;;;;;;;54.90;28.80;;;;;;;0.78;91.58;99249.27;87130;1300;98397;-76
2022/12/05 08:52:28;;;;;;;55.30;29.40;;;;;;;0.81;91.71;99255.33;87102;1295;22571;-77
2022/12/05 08:54:29;;;;;;;50.30;29.00;;;;;;;0.83;91.40;99261.73;86969;1295;22478;-75
2022/12/05 08:56:31;;;;;;;51.30;29.40;;;;;;;0.86;91.59;99259.63;87161;1295;98826;-77
2022/12/05 08:58:33;;;;;;;56.40;30.00;;;;;;;0.87;91.42;99257.03;87168;1288;22565;-77
2022/12/05 09:00:34;;;;;;;54.60;29.90;;;;;;;0.91;91.33;99260.65;87169;1292;22517;-77
2022/12/05 09:02:35;;;;;;;54.60;31.00;;;;;;;0.93;91.35;99260.12;87147;1293;99332;-75
2022/12/05 09:04:36;;;;;;;55.40;30.20;;;;;;;0.93;91.18;99259.94;87082;1296;22489;-77
2022/12/05 09:06:38;;;;;;;53.50;31.10;;;;;;;0.94;91.44;99258.73;87003;1302;22675;-78
2022/12/05 09:08:41;;;;;;;51.00;29.60;;;;;;;0.94;91.48;99251.64;87031;1293;98247;-77
2022/12/05 09:10:42;;;;;;;54.90;30.50;;;;;;;0.95;91.22;99250.09;87132;1295;22790;-77
2022/12/05 09:12:44;;;;;;;52.10;31.50;;;;;;;0.95;91.29;99249.73;87217;1313;22939;-78
2022/12/05 09:14:45;;;;;;;55.30;29.70;;;;;;;0.95;91.45;99247.83;87162;1295;98274;-77
2022/12/05 09:16:47;;;;;;;55.40;30.10;;;;;;;0.97;91.31;99241.94;87220;1292;22731;-80
2022/12/05 09:18:49;;;;;;;50.30;29.80;;;;;;;0.99;91.24;99238.81;87245;1297;22687;-77
2022/12/05 09:20:51;;;;;;;52.00;29.70;;;;;;;1.01;91.45;99234.13;87216;1289;98590;-76
2022/12/05 09:22:52;;;;;;;44.00;26.70;;;;;;;1.06;91.11;99229.43;87386;1295;22426;-77
2022/12/05 09:24:53;;;;;;;52.90;30.90;;;;;;;1.10;91.51;99225.08;87306;1293;24384;-75
2022/12/05 09:26:54;;;;;;;55.10;30.90;;;;;;;1.15;91.29;99223.32;87242;1292;98235;-79
2022/12/05 09:28:55;;;;;;;53.40;29.00;;;;;;;1.19;91.56;99222.60;87420;1300;23774;-78
2022/12/05 09:31:00;;;;;;;53.30;30.50;;;;;;;1.25;91.50;99226.89;87392;1290;23873;-77
2022/12/05 09:33:02;;;;;;;51.20;29.80;;;;;;;1.30;91.70;99230.33;87495;1295;98248;-78
2022/12/05 09:35:03;;;;;;;53.00;30.10;;;;;;;1.34;91.75;99228.90;87400;1282;22445;-78
2022/12/05 09:37:05;;;;;;;;;;;;;;;1.39;91.32;99226.63;87299;1311;25585;-76
2022/12/05 09:39:07;;;;;;;58.50;31.20;;;;;;;1.42;91.55;99225.39;87265;1302;85360;-78
2022/12/05 09:43:55;;;;;;;61.10;31.10;;;;;;;1.47;91.35;99207.69;87484;1299;22624;-77